Wonderwood — PH3889 — position and weather

sailwx.info

Track history (hours):
 
Tides and Currents Weather Stations Pressure Air Temp Water Temp Dewpoint Dewpoint Depression Visibility Wind Speed Wind Dir Waves Ship Positions

Wonderwood

Last reported at 2017-Sep-17 20:20 UTC. Time now 2017-Sep-19 22:41 UTC.
Position N 49°57' W 001°07'.

Length 12 m.

Type: Sailing vessel. MMSI: 244087155.

Date/timePositionNaut miles runAvg speedWind from/ knotsBaromVisibWave heightAir tempDewpointWater temp
2017-Sep-17 20:20N 49°57' W 001°07'2 6.5
2017-Sep-17 20:00N 49°56' W 001°11'3 6.9
2017-Sep-17 19:30N 49°55' W 001°16'4 7.7
2017-Sep-17 19:00N 49°53' W 001°21'4 8.1
2017-Sep-17 18:30N 49°52' W 001°27'4 8.5
2017-Sep-17 18:00N 49°51' W 001°33'4 8.7
2017-Sep-17 17:30N 49°50' W 001°40'4 7.5
2017-Sep-17 17:01N 49°49' W 001°45'4 7.5
2017-Sep-17 16:27N 49°48' W 001°52'127 4.5
2017-Sep-16 12:06N 48°41' W 004°37'1 6.3
2017-Sep-16 11:57N 48°40' W 004°39'4 7.2
2017-Sep-16 11:26N 48°38' W 004°43'3 6.5
2017-Sep-16 11:00N 48°36' W 004°47'3 5.6
2017-Sep-16 10:30N 48°34' W 004°48'3 5.2
2017-Sep-16 10:00N 48°31' W 004°49'3 5.2
2017-Sep-16 09:30N 48°29' W 004°50'2 4.7
2017-Sep-16 09:00N 48°26' W 004°50'2 4.6
2017-Sep-16 08:28N 48°24' W 004°49'3 5.4
2017-Sep-16 07:59N 48°21' W 004°49'3 5.6
2017-Sep-16 07:30N 48°19' W 004°46'3 6.2
2017-Sep-16 07:00N 48°19' W 004°41'3 6.3
2017-Sep-16 06:30N 48°20' W 004°37'3 6.6
2017-Sep-16 06:00N 48°21' W 004°32'2 4.7
2017-Sep-16 05:30N 48°23' W 004°29'0 0.3
2017-Sep-16 04:58N 48°23' W 004°29'0 0.0
2017-Sep-16 04:28N 48°23' W 004°29'0 0.0
2017-Sep-16 03:58N 48°23' W 004°29'0 0.0
2017-Sep-16 03:28N 48°23' W 004°29'0 0.0
2017-Sep-16 02:58N 48°23' W 004°29'0 0.0
2017-Sep-16 02:28N 48°23' W 004°29'0 0.0
2017-Sep-16 01:58N 48°23' W 004°29'0 0.0
2017-Sep-16 01:28N 48°23' W 004°29'0 0.0
2017-Sep-16 00:58N 48°23' W 004°29'0 0.0
2017-Sep-16 00:28N 48°23' W 004°29'0 0.0
2017-Sep-15 23:58N 48°23' W 004°29'0 0.0
2017-Sep-15 23:28N 48°23' W 004°29'0 0.0
2017-Sep-15 22:58N 48°23' W 004°29'0 0.0
2017-Sep-15 22:28N 48°23' W 004°29'0 0.0
2017-Sep-15 21:58N 48°23' W 004°29'0 0.0
2017-Sep-15 21:28N 48°23' W 004°29'0 0.0
2017-Sep-15 20:58N 48°23' W 004°29'0 0.0
2017-Sep-15 20:28N 48°23' W 004°29'0 0.0
2017-Sep-15 19:58N 48°23' W 004°29'0 0.0
2017-Sep-15 19:28N 48°23' W 004°29'0 0.0
2017-Sep-15 18:58N 48°23' W 004°29'0 0.0
2017-Sep-15 18:28N 48°23' W 004°29'0 0.0
2017-Sep-15 17:58N 48°23' W 004°29'0 0.0
2017-Sep-15 17:28N 48°23' W 004°29'0 0.0
2017-Sep-15 16:58N 48°23' W 004°29'0 0.0
2017-Sep-15 16:28N 48°23' W 004°29'0 0.0
2017-Sep-15 15:58N 48°23' W 004°29'0 0.0
2017-Sep-15 15:28N 48°23' W 004°29'0 0.0
2017-Sep-15 14:58N 48°23' W 004°29'0 0.0
2017-Sep-15 14:28N 48°23' W 004°29'0 0.0
2017-Sep-15 13:58N 48°23' W 004°29'0 0.0
2017-Sep-15 13:28N 48°23' W 004°29'0 0.0
2017-Sep-15 12:58N 48°23' W 004°29'0 0.0
2017-Sep-15 12:28N 48°23' W 004°29'0 0.0
2017-Sep-15 11:58N 48°23' W 004°29'0 0.0
2017-Sep-15 11:28N 48°23' W 004°29'0 0.0
2017-Sep-15 10:58N 48°23' W 004°29'0 0.0
2017-Sep-15 10:29N 48°23' W 004°29'0 0.0
2017-Sep-15 09:58N 48°23' W 004°29'0 0.0
2017-Sep-15 09:28N 48°23' W 004°29'0 0.0
2017-Sep-15 08:58N 48°23' W 004°29'0 0.0
2017-Sep-15 08:28N 48°23' W 004°29'0 0.0
2017-Sep-15 07:58N 48°23' W 004°29'0 0.0
2017-Sep-15 07:28N 48°23' W 004°29'0 0.0
2017-Sep-15 06:58N 48°23' W 004°29'0 0.0
2017-Sep-15 06:28N 48°23' W 004°29'0 0.0
2017-Sep-15 05:58N 48°23' W 004°29'0 0.0
2017-Sep-15 05:28N 48°23' W 004°29'0 0.0
2017-Sep-15 04:58N 48°23' W 004°29'0 0.0
2017-Sep-15 04:28N 48°23' W 004°29'0 0.0
2017-Sep-15 03:58N 48°23' W 004°29'0 0.0
2017-Sep-15 03:28N 48°23' W 004°29'0 0.0
2017-Sep-15 02:58N 48°23' W 004°29'0 0.0
2017-Sep-15 02:28N 48°23' W 004°29'0 0.0
2017-Sep-15 01:58N 48°23' W 004°29'0 0.0
2017-Sep-15 01:28N 48°23' W 004°29'0 0.0
2017-Sep-15 00:58N 48°23' W 004°29'0 0.0
2017-Sep-15 00:28N 48°23' W 004°29'0 0.0
2017-Sep-14 23:58N 48°23' W 004°29'0 0.0
2017-Sep-14 23:28N 48°23' W 004°29'0 0.0
2017-Sep-14 22:58N 48°23' W 004°29'0 0.0
2017-Sep-14 22:28N 48°23' W 004°29'0 0.0
2017-Sep-14 21:58N 48°23' W 004°29'0 0.0
2017-Sep-14 21:28N 48°23' W 004°29'0 0.0
2017-Sep-14 20:58N 48°23' W 004°29'0 0.0
2017-Sep-14 20:28N 48°23' W 004°29'0 0.0
2017-Sep-14 19:58N 48°23' W 004°29'0 0.0
2017-Sep-14 19:28N 48°23' W 004°29'0 0.0
2017-Sep-14 18:58N 48°23' W 004°29'0 0.0
2017-Sep-14 18:28N 48°23' W 004°29'0 0.0
2017-Sep-14 17:58N 48°23' W 004°29'0 0.0
2017-Sep-14 17:25N 48°23' W 004°29'0 0.0
2017-Sep-14 16:58N 48°23' W 004°29'0 0.0
2017-Sep-14 16:28N 48°23' W 004°29'0 0.0
2017-Sep-14 15:58N 48°23' W 004°29'0 0.0
2017-Sep-14 15:28N 48°23' W 004°29'0 0.0
2017-Sep-14 14:58N 48°23' W 004°29'0 0.0
2017-Sep-14 14:28N 48°23' W 004°29'0 0.0
2017-Sep-14 13:58N 48°23' W 004°29'0 0.0
2017-Sep-14 13:28N 48°23' W 004°29'0 0.0
2017-Sep-14 12:58N 48°23' W 004°29'0 0.0
2017-Sep-14 12:28N 48°23' W 004°29'0 0.0
2017-Sep-14 11:58N 48°23' W 004°29'0 0.0
2017-Sep-14 11:28N 48°23' W 004°29'0 0.0
2017-Sep-14 10:58N 48°23' W 004°29'0 0.0
2017-Sep-14 10:28N 48°23' W 004°29'0 0.0
2017-Sep-14 09:58N 48°23' W 004°29'0 0.0
2017-Sep-14 09:28N 48°23' W 004°29'0 0.0
2017-Sep-14 08:58N 48°23' W 004°29'0 0.0
2017-Sep-14 08:28N 48°23' W 004°29'0 0.0
2017-Sep-14 07:58N 48°23' W 004°29'0 0.0
2017-Sep-14 07:28N 48°23' W 004°29'0 0.0
2017-Sep-14 06:58N 48°23' W 004°29'0 0.0
2017-Sep-14 06:28N 48°23' W 004°29'0 0.0
2017-Sep-14 05:58N 48°23' W 004°29'0 0.0
2017-Sep-14 05:28N 48°23' W 004°29'0 0.0
2017-Sep-14 04:58N 48°23' W 004°29'0 0.0
2017-Sep-14 04:28N 48°23' W 004°29'0 0.0
2017-Sep-14 03:58N 48°23' W 004°29'0 0.0
2017-Sep-14 03:28N 48°23' W 004°29'0 0.0
2017-Sep-14 02:58N 48°23' W 004°29'0 0.0
2017-Sep-14 02:28N 48°23' W 004°29'0 0.0
2017-Sep-14 01:58N 48°23' W 004°29'0 0.0
2017-Sep-14 01:28N 48°23' W 004°29'0 0.0
2017-Sep-14 00:58N 48°23' W 004°29'0 0.0
2017-Sep-14 00:28N 48°23' W 004°29'0 0.0
2017-Sep-13 23:58N 48°23' W 004°29'0 0.0
2017-Sep-13 23:28N 48°23' W 004°29'0 0.0
2017-Sep-13 22:58N 48°23' W 004°29'0 0.0
2017-Sep-13 22:28N 48°23' W 004°29'0 0.0
2017-Sep-13 21:58N 48°23' W 004°29'0 0.0
2017-Sep-13 21:28N 48°23' W 004°29'0 0.0
2017-Sep-13 20:58N 48°23' W 004°29'0 0.0
2017-Sep-13 20:28N 48°23' W 004°29'0 0.0
2017-Sep-13 19:58N 48°23' W 004°29'0 0.0
2017-Sep-13 19:28N 48°23' W 004°29'0 0.0
2017-Sep-13 18:58N 48°23' W 004°29'0 0.0
2017-Sep-13 18:28N 48°23' W 004°29'0 0.0
2017-Sep-13 17:58N 48°23' W 004°29'0 0.0
2017-Sep-13 17:28N 48°23' W 004°29'0 0.0
2017-Sep-13 16:58N 48°23' W 004°29'0 0.0
2017-Sep-13 16:28N 48°23' W 004°29'0 0.0
2017-Sep-13 15:58N 48°23' W 004°29'0 0.0
2017-Sep-13 15:28N 48°23' W 004°29'0 0.0
2017-Sep-13 14:58N 48°23' W 004°29'0 0.0
2017-Sep-13 14:28N 48°23' W 004°29'0 0.0
2017-Sep-13 13:58N 48°23' W 004°29'0 0.0
2017-Sep-13 13:28N 48°23' W 004°29'0 0.0
2017-Sep-13 12:58N 48°23' W 004°29'0 0.0
2017-Sep-13 12:28N 48°23' W 004°29'0 0.0
2017-Sep-13 11:58N 48°23' W 004°29'0 0.0
2017-Sep-13 11:28N 48°23' W 004°29'0 0.0
2017-Sep-13 10:58N 48°23' W 004°29'0 0.0
2017-Sep-13 10:28N 48°23' W 004°29'0 0.0
2017-Sep-13 09:58N 48°23' W 004°29'0 0.0
2017-Sep-13 09:28N 48°23' W 004°29'0 0.0
2017-Sep-13 08:58N 48°23' W 004°29'0 0.0
2017-Sep-13 08:28N 48°23' W 004°29'0 0.0
2017-Sep-13 07:58N 48°23' W 004°29'0 0.0
2017-Sep-13 07:28N 48°23' W 004°29'0 0.0
2017-Sep-13 06:58N 48°23' W 004°29'0 0.0
2017-Sep-13 06:28N 48°23' W 004°29'0 0.0
2017-Sep-13 05:58N 48°23' W 004°29'0 0.0
2017-Sep-13 05:28N 48°23' W 004°29'0 0.0
2017-Sep-13 04:58N 48°23' W 004°29'0 0.0
2017-Sep-13 04:28N 48°23' W 004°29'0 0.0
2017-Sep-13 03:58N 48°23' W 004°29'0 0.0
2017-Sep-13 03:28N 48°23' W 004°29'0 0.0
2017-Sep-13 02:58N 48°23' W 004°29'0 0.0
2017-Sep-13 02:28N 48°23' W 004°29'0 0.0
2017-Sep-13 01:58N 48°23' W 004°29'0 0.0
2017-Sep-13 01:28N 48°23' W 004°29'0 0.0
2017-Sep-13 00:58N 48°23' W 004°29'0 0.0
2017-Sep-13 00:28N 48°23' W 004°29'0 0.0
2017-Sep-12 23:58N 48°23' W 004°29'0 0.0
2017-Sep-12 23:28N 48°23' W 004°29'0 0.0
2017-Sep-12 22:58N 48°23' W 004°29'0 0.0
2017-Sep-12 22:28N 48°23' W 004°29'0 0.0
2017-Sep-12 21:58N 48°23' W 004°29'0 0.0
2017-Sep-12 21:28N 48°23' W 004°29'0 0.0
2017-Sep-12 20:58N 48°23' W 004°29'0 0.0
2017-Sep-12 20:28N 48°23' W 004°29'0 0.0
2017-Sep-12 19:58N 48°23' W 004°29'0 0.0
2017-Sep-12 19:28N 48°23' W 004°29'0 0.0
2017-Sep-12 18:58N 48°23' W 004°29'0 0.0
2017-Sep-12 18:28N 48°23' W 004°29'0 0.0
2017-Sep-12 17:58N 48°23' W 004°29'0 0.0
2017-Sep-12 17:28N 48°23' W 004°29'0 0.0
2017-Sep-12 16:58N 48°23' W 004°29'0 0.0
2017-Sep-12 16:28N 48°23' W 004°29'0 0.0
2017-Sep-12 15:58N 48°23' W 004°29'0 0.0
2017-Sep-12 15:28N 48°23' W 004°29'0 0.0
2017-Sep-12 14:58N 48°23' W 004°29'0 0.0
2017-Sep-12 14:28N 48°23' W 004°29'0 0.0
2017-Sep-12 13:58N 48°23' W 004°29'0 0.0
2017-Sep-12 13:28N 48°23' W 004°29'0 0.0
2017-Sep-12 12:58N 48°23' W 004°29'0 0.0
2017-Sep-12 12:28N 48°23' W 004°29'0 0.0
2017-Sep-12 11:58N 48°23' W 004°29'0 0.0
2017-Sep-12 11:28N 48°23' W 004°29'0 0.0
2017-Sep-12 10:58N 48°23' W 004°29'0 0.0
2017-Sep-12 10:28N 48°23' W 004°29'0 0.0
2017-Sep-12 09:58N 48°23' W 004°29'0 0.0
2017-Sep-12 09:28N 48°23' W 004°29'0 0.0
2017-Sep-12 08:58N 48°23' W 004°29'0 0.0
2017-Sep-12 08:28N 48°23' W 004°29'0 0.0
2017-Sep-12 07:58N 48°23' W 004°29'0 0.0
2017-Sep-12 07:28N 48°23' W 004°29'0 0.0
2017-Sep-12 06:58N 48°23' W 004°29'0 0.0
2017-Sep-12 06:28N 48°23' W 004°29'0 0.0
2017-Sep-12 05:58N 48°23' W 004°29'0 0.0
2017-Sep-12 05:28N 48°23' W 004°29'0 0.0
2017-Sep-12 04:58N 48°23' W 004°29'0 0.0
2017-Sep-12 04:28N 48°23' W 004°29'0 0.0
2017-Sep-12 03:58N 48°23' W 004°29'0 0.0
2017-Sep-12 03:28N 48°23' W 004°29'0 0.0
2017-Sep-12 02:58N 48°23' W 004°29'0 0.0
2017-Sep-12 02:28N 48°23' W 004°29'0 0.0
2017-Sep-12 01:58N 48°23' W 004°29'0 0.0
2017-Sep-12 01:28N 48°23' W 004°29'0 0.0
2017-Sep-12 00:58N 48°23' W 004°29'0 0.0
2017-Sep-12 00:28N 48°23' W 004°29'0 0.0
2017-Sep-11 23:58N 48°23' W 004°29'0 0.0
2017-Sep-11 23:28N 48°23' W 004°29'0 0.0
2017-Sep-11 22:58N 48°23' W 004°29'0 0.0
2017-Sep-11 22:28N 48°23' W 004°29'0 0.0
2017-Sep-11 21:58N 48°23' W 004°29'0 0.0
2017-Sep-11 21:28N 48°23' W 004°29'0 0.0
2017-Sep-11 20:58N 48°23' W 004°29'0 0.0
2017-Sep-11 20:28N 48°23' W 004°29'0 0.0
2017-Sep-11 19:58N 48°23' W 004°29'0 0.0
2017-Sep-11 19:28N 48°23' W 004°29'0 0.0
2017-Sep-11 18:58N 48°23' W 004°29'0 0.0
2017-Sep-11 18:28N 48°23' W 004°29'0 0.0
2017-Sep-11 17:58N 48°23' W 004°29'0 0.0
2017-Sep-11 17:28N 48°23' W 004°29'0 0.0
2017-Sep-11 16:58N 48°23' W 004°29'0 0.0
2017-Sep-11 16:28N 48°23' W 004°29'0 0.0
2017-Sep-11 15:58N 48°23' W 004°29'0 0.0
2017-Sep-11 15:28N 48°23' W 004°29'0 0.0
2017-Sep-11 14:58N 48°23' W 004°29'0 0.0
2017-Sep-11 14:28N 48°23' W 004°29'0 0.0
2017-Sep-11 13:58N 48°23' W 004°29'0 0.0
2017-Sep-11 13:28N 48°23' W 004°29'0 0.0
2017-Sep-11 12:58N 48°23' W 004°29'0 0.0
2017-Sep-11 12:28N 48°23' W 004°29'0 0.0
2017-Sep-11 11:58N 48°23' W 004°29'0 0.0
2017-Sep-11 11:28N 48°23' W 004°29'0 0.0
2017-Sep-11 10:58N 48°23' W 004°29'0 0.0
2017-Sep-11 10:28N 48°23' W 004°29'0 0.0
2017-Sep-11 09:58N 48°23' W 004°29'0 0.0
2017-Sep-11 09:28N 48°23' W 004°29'0 0.0
2017-Sep-11 08:58N 48°23' W 004°29'0 0.0
2017-Sep-11 08:28N 48°23' W 004°29'0 0.0
2017-Sep-11 07:58N 48°23' W 004°29'0 0.0
2017-Sep-11 07:28N 48°23' W 004°29'0 0.0
2017-Sep-11 06:58N 48°23' W 004°29'0 0.0
2017-Sep-11 06:28N 48°23' W 004°29'0 0.0
2017-Sep-11 05:58N 48°23' W 004°29'0 0.0
2017-Sep-11 05:28N 48°23' W 004°29'0 0.0
2017-Sep-11 04:58N 48°23' W 004°29'0 0.0
2017-Sep-11 04:28N 48°23' W 004°29'0 0.0
2017-Sep-11 03:58N 48°23' W 004°29'0 0.0
2017-Sep-11 03:28N 48°23' W 004°29'0 0.0
2017-Sep-11 02:58N 48°23' W 004°29'0 0.0
2017-Sep-11 02:28N 48°23' W 004°29'0 0.0
2017-Sep-11 01:58N 48°23' W 004°29'0 0.0
2017-Sep-11 01:28N 48°23' W 004°29'0 0.0
2017-Sep-11 00:58N 48°23' W 004°29'0 0.0
2017-Sep-11 00:28N 48°23' W 004°29'0 0.0
2017-Sep-10 23:58N 48°23' W 004°29'0 0.0
2017-Sep-10 23:28N 48°23' W 004°29'0 0.0
2017-Sep-10 22:58N 48°23' W 004°29'0 0.0
2017-Sep-10 22:28N 48°23' W 004°29'0 0.0
2017-Sep-10 21:58N 48°23' W 004°29'0 0.0
2017-Sep-10 21:28N 48°23' W 004°29'0 0.0
2017-Sep-10 20:58N 48°23' W 004°29'0 0.0
2017-Sep-10 20:28N 48°23' W 004°29'0 0.0
2017-Sep-10 19:58N 48°23' W 004°29'0 0.0
2017-Sep-10 19:28N 48°23' W 004°29'0 0.0
2017-Sep-10 18:58N 48°23' W 004°29'0 0.0
2017-Sep-10 18:28N 48°23' W 004°29'0 0.0
2017-Sep-10 17:58N 48°23' W 004°29'0 0.0
2017-Sep-10 17:28N 48°23' W 004°29'0 0.0
2017-Sep-10 17:01N 48°23' W 004°29'0 0.0
2017-Sep-10 16:28N 48°23' W 004°29'0 0.0
2017-Sep-10 15:58N 48°23' W 004°29'0 0.0
2017-Sep-10 15:31N 48°23' W 004°29'0 0.0
2017-Sep-10 15:01N 48°23' W 004°29'0 0.0
2017-Sep-10 13:58N 48°23' W 004°29'0 0.0
2017-Sep-10 13:31N 48°23' W 004°29'0 0.0
2017-Sep-10 13:01N 48°23' W 004°29'0 0.0
2017-Sep-10 12:31N 48°23' W 004°29'0 0.0
2017-Sep-10 12:01N 48°23' W 004°29'0 0.0
2017-Sep-10 11:31N 48°23' W 004°29'0 0.0
2017-Sep-10 11:01N 48°23' W 004°29'0 0.0
2017-Sep-10 10:31N 48°23' W 004°29'0 0.0
2017-Sep-10 10:01N 48°23' W 004°29'0 0.0
2017-Sep-10 09:31N 48°23' W 004°29'0 0.0
2017-Sep-10 09:01N 48°23' W 004°29'0 0.0
2017-Sep-10 08:31N 48°23' W 004°29'0 0.0
2017-Sep-10 08:01N 48°23' W 004°29'0 0.0
2017-Sep-10 07:31N 48°23' W 004°29'0 0.0
2017-Sep-10 07:01N 48°23' W 004°29'0 0.0
2017-Sep-10 06:31N 48°23' W 004°29'0 0.0
2017-Sep-10 06:00N 48°23' W 004°29'0 0.0
2017-Sep-10 05:31N 48°23' W 004°29'0 0.0
2017-Sep-10 05:00N 48°23' W 004°29'0 0.0
2017-Sep-10 04:30N 48°23' W 004°29'0 0.0
2017-Sep-10 04:01N 48°23' W 004°29'0 0.0
2017-Sep-10 03:30N 48°23' W 004°29'0 0.0
2017-Sep-10 03:00N 48°23' W 004°29'0 0.0
2017-Sep-10 02:30N 48°23' W 004°29'0 0.0
2017-Sep-10 02:00N 48°23' W 004°29'0 0.0
2017-Sep-10 01:30N 48°23' W 004°29'0 0.0
2017-Sep-10 01:00N 48°23' W 004°29'0 0.0
2017-Sep-10 00:30N 48°23' W 004°29'0 0.0
2017-Sep-10 00:01N 48°23' W 004°29'0 0.0
2017-Sep-09 23:30N 48°23' W 004°29'0 0.0
2017-Sep-09 23:00N 48°23' W 004°29'0 0.0
2017-Sep-09 22:30N 48°23' W 004°29'0 0.0
2017-Sep-09 22:00N 48°23' W 004°29'0 0.0
2017-Sep-09 21:30N 48°23' W 004°29'0 0.0
2017-Sep-09 21:01N 48°23' W 004°29'0 0.0
2017-Sep-09 20:30N 48°23' W 004°29'0 0.0
2017-Sep-09 20:00N 48°23' W 004°29'0 0.0
2017-Sep-09 19:30N 48°23' W 004°29'0 0.0
2017-Sep-09 19:00N 48°23' W 004°29'0 0.0
2017-Sep-09 18:30N 48°23' W 004°29'0 0.0
2017-Sep-09 18:00N 48°23' W 004°29'0 0.0
2017-Sep-09 17:30N 48°23' W 004°29'0 0.0
2017-Sep-09 17:00N 48°23' W 004°29'0 0.0
2017-Sep-09 16:30N 48°23' W 004°29'0 0.0
2017-Sep-09 16:00N 48°23' W 004°29'0 0.0
2017-Sep-09 15:31N 48°23' W 004°29'0 0.0
2017-Sep-09 15:00N 48°23' W 004°29'0 0.0
2017-Sep-09 14:30N 48°23' W 004°29'0 0.0
2017-Sep-09 14:00N 48°23' W 004°29'0 0.0
2017-Sep-09 13:30N 48°23' W 004°29'0 0.0
2017-Sep-09 13:01N 48°23' W 004°29'0 0.0
2017-Sep-09 12:31N 48°23' W 004°29'0 0.0
2017-Sep-09 12:00N 48°23' W 004°29'0 0.0
2017-Sep-09 11:30N 48°23' W 004°29'0 0.0
2017-Sep-09 11:00N 48°23' W 004°29'0 0.0
2017-Sep-09 10:30N 48°23' W 004°29'0 0.0
2017-Sep-09 10:00N 48°23' W 004°29'0 0.0
2017-Sep-09 09:30N 48°23' W 004°29'0 0.0
2017-Sep-09 09:00N 48°23' W 004°29'0 0.0
2017-Sep-09 08:30N 48°23' W 004°29'0 0.0
2017-Sep-09 08:01N 48°23' W 004°29'0 0.0
2017-Sep-09 07:30N 48°23' W 004°29'0 0.0
2017-Sep-09 07:00N 48°23' W 004°29'0 0.0
2017-Sep-09 06:30N 48°23' W 004°29'0 0.0
2017-Sep-09 06:00N 48°23' W 004°29'0 0.0
2017-Sep-09 05:30N 48°23' W 004°29'0 0.0
2017-Sep-09 05:00N 48°23' W 004°29'0 0.0
2017-Sep-09 04:30N 48°23' W 004°29'0 0.0
2017-Sep-09 04:00N 48°23' W 004°29'0 0.0
2017-Sep-09 03:30N 48°23' W 004°29'0 0.0
2017-Sep-09 03:00N 48°23' W 004°29'0 0.0
2017-Sep-09 02:30N 48°23' W 004°29'0 0.0
2017-Sep-09 02:00N 48°23' W 004°29'0 0.0
2017-Sep-09 01:30N 48°23' W 004°29'0 0.0
2017-Sep-09 01:00N 48°23' W 004°29'0 0.0
2017-Sep-09 00:30N 48°23' W 004°29'0 0.0
2017-Sep-09 00:00N 48°23' W 004°29'0 0.0
2017-Sep-08 23:30N 48°23' W 004°29'0 0.0
2017-Sep-08 23:00N 48°23' W 004°29'0 0.0
2017-Sep-08 22:30N 48°23' W 004°29'0 0.0
2017-Sep-08 22:00N 48°23' W 004°29'0 0.0
2017-Sep-08 21:30N 48°23' W 004°29'0 0.0
2017-Sep-08 21:00N 48°23' W 004°29'0 0.0
2017-Sep-08 20:30N 48°23' W 004°29'0 0.0
2017-Sep-08 20:00N 48°23' W 004°29'0 0.0
2017-Sep-08 19:30N 48°23' W 004°29'0 0.0
2017-Sep-08 19:00N 48°23' W 004°29'0 0.0
2017-Sep-08 18:30N 48°23' W 004°29'0 0.0
2017-Sep-08 18:00N 48°23' W 004°29'0 0.0
2017-Sep-08 17:30N 48°23' W 004°29'0 0.0
2017-Sep-08 17:00N 48°23' W 004°29'0 0.0
2017-Sep-08 16:30N 48°23' W 004°29'0 0.0
2017-Sep-08 16:00N 48°23' W 004°29'0 0.0
2017-Sep-08 15:30N 48°23' W 004°29'0 0.0
2017-Sep-08 15:00N 48°23' W 004°29'0 0.0
2017-Sep-08 14:30N 48°23' W 004°29'0 0.0
2017-Sep-08 14:00N 48°23' W 004°29'0 0.0
2017-Sep-08 13:30N 48°23' W 004°29'0 0.0
2017-Sep-08 13:00N 48°23' W 004°29'0 0.0
2017-Sep-08 12:30N 48°23' W 004°29'0 0.0
2017-Sep-08 12:00N 48°23' W 004°29'0 0.0
2017-Sep-08 11:30N 48°23' W 004°29'0 0.0
2017-Sep-08 11:00N 48°23' W 004°29'0 0.0
2017-Sep-08 10:30N 48°23' W 004°29'0 0.0
2017-Sep-08 10:00N 48°23' W 004°29'0 0.0
2017-Sep-08 09:30N 48°23' W 004°29'0 0.0
2017-Sep-08 09:00N 48°23' W 004°29'0 0.0
2017-Sep-08 08:30N 48°23' W 004°29'0 0.0
2017-Sep-08 08:00N 48°23' W 004°29'0 0.0
2017-Sep-08 07:30N 48°23' W 004°29'0 0.0
2017-Sep-08 07:00N 48°23' W 004°29'0 0.0
2017-Sep-08 06:30N 48°23' W 004°29'0 0.0
2017-Sep-08 06:00N 48°23' W 004°29'0 0.0
2017-Sep-08 05:30N 48°23' W 004°29'0 0.0
2017-Sep-08 05:00N 48°23' W 004°29'0 0.0
2017-Sep-08 04:30N 48°23' W 004°29'0 0.0
2017-Sep-08 04:00N 48°23' W 004°29'0 0.0
2017-Sep-08 03:30N 48°23' W 004°29'0 0.0
2017-Sep-08 03:00N 48°23' W 004°29'0 0.0
2017-Sep-08 02:30N 48°23' W 004°29'0 0.0
2017-Sep-08 02:00N 48°23' W 004°29'0 0.0
2017-Sep-08 01:30N 48°23' W 004°29'0 0.0
2017-Sep-08 01:00N 48°23' W 004°29'0 0.0
2017-Sep-08 00:30N 48°23' W 004°29'0 0.0
2017-Sep-08 00:00N 48°23' W 004°29'0 0.0
2017-Sep-07 23:30N 48°23' W 004°29'0 0.0
2017-Sep-07 23:00N 48°23' W 004°29'0 0.0
2017-Sep-07 22:30N 48°23' W 004°29'0 0.0
2017-Sep-07 22:00N 48°23' W 004°29'0 0.0
2017-Sep-07 21:30N 48°23' W 004°29'0 0.0
2017-Sep-07 21:00N 48°23' W 004°29'0 0.0
2017-Sep-07 20:30N 48°23' W 004°29'  
Track history (hours):
 
Tides and Currents Weather Stations Pressure Air Temp Water Temp Dewpoint Dewpoint Depression Visibility Wind Speed Wind Dir Waves Ship Positions

Wonderwood

Last reported at 2017-Sep-17 20:20 UTC. Time now 2017-Sep-19 22:41 UTC.
Position N 49°57' W 001°07'.

Length 12 m.

Type: Sailing vessel. MMSI: 244087155.

Date/timePositionNaut miles runAvg speedWind from/ knotsBaromVisibWave heightAir tempDewpointWater temp
2017-Sep-17 20:20N 49°57' W 001°07'2 6.5
2017-Sep-17 20:00N 49°56' W 001°11'3 6.9
2017-Sep-17 19:30N 49°55' W 001°16'4 7.7
2017-Sep-17 19:00N 49°53' W 001°21'4 8.1
2017-Sep-17 18:30N 49°52' W 001°27'4 8.5
2017-Sep-17 18:00N 49°51' W 001°33'4 8.7
2017-Sep-17 17:30N 49°50' W 001°40'4 7.5
2017-Sep-17 17:01N 49°49' W 001°45'4 7.5
2017-Sep-17 16:27N 49°48' W 001°52'127 4.5
2017-Sep-16 12:06N 48°41' W 004°37'1 6.3
2017-Sep-16 11:57N 48°40' W 004°39'4 7.2
2017-Sep-16 11:26N 48°38' W 004°43'3 6.5
2017-Sep-16 11:00N 48°36' W 004°47'3 5.6
2017-Sep-16 10:30N 48°34' W 004°48'3 5.2
2017-Sep-16 10:00N 48°31' W 004°49'3 5.2
2017-Sep-16 09:30N 48°29' W 004°50'2 4.7
2017-Sep-16 09:00N 48°26' W 004°50'2 4.6
2017-Sep-16 08:28N 48°24' W 004°49'3 5.4
2017-Sep-16 07:59N 48°21' W 004°49'3 5.6
2017-Sep-16 07:30N 48°19' W 004°46'3 6.2
2017-Sep-16 07:00N 48°19' W 004°41'3 6.3
2017-Sep-16 06:30N 48°20' W 004°37'3 6.6
2017-Sep-16 06:00N 48°21' W 004°32'2 4.7
2017-Sep-16 05:30N 48°23' W 004°29'0 0.3
2017-Sep-16 04:58N 48°23' W 004°29'0 0.0
2017-Sep-16 04:28N 48°23' W 004°29'0 0.0
2017-Sep-16 03:58N 48°23' W 004°29'0 0.0
2017-Sep-16 03:28N 48°23' W 004°29'0 0.0
2017-Sep-16 02:58N 48°23' W 004°29'0 0.0
2017-Sep-16 02:28N 48°23' W 004°29'0 0.0
2017-Sep-16 01:58N 48°23' W 004°29'0 0.0
2017-Sep-16 01:28N 48°23' W 004°29'0 0.0
2017-Sep-16 00:58N 48°23' W 004°29'0 0.0
2017-Sep-16 00:28N 48°23' W 004°29'0 0.0
2017-Sep-15 23:58N 48°23' W 004°29'0 0.0
2017-Sep-15 23:28N 48°23' W 004°29'0 0.0
2017-Sep-15 22:58N 48°23' W 004°29'0 0.0
2017-Sep-15 22:28N 48°23' W 004°29'0 0.0
2017-Sep-15 21:58N 48°23' W 004°29'0 0.0
2017-Sep-15 21:28N 48°23' W 004°29'0 0.0
2017-Sep-15 20:58N 48°23' W 004°29'0 0.0
2017-Sep-15 20:28N 48°23' W 004°29'0 0.0
2017-Sep-15 19:58N 48°23' W 004°29'0 0.0
2017-Sep-15 19:28N 48°23' W 004°29'0 0.0
2017-Sep-15 18:58N 48°23' W 004°29'0 0.0
2017-Sep-15 18:28N 48°23' W 004°29'0 0.0
2017-Sep-15 17:58N 48°23' W 004°29'0 0.0
2017-Sep-15 17:28N 48°23' W 004°29'0 0.0
2017-Sep-15 16:58N 48°23' W 004°29'0 0.0
2017-Sep-15 16:28N 48°23' W 004°29'0 0.0
2017-Sep-15 15:58N 48°23' W 004°29'0 0.0
2017-Sep-15 15:28N 48°23' W 004°29'0 0.0
2017-Sep-15 14:58N 48°23' W 004°29'0 0.0
2017-Sep-15 14:28N 48°23' W 004°29'0 0.0
2017-Sep-15 13:58N 48°23' W 004°29'0 0.0
2017-Sep-15 13:28N 48°23' W 004°29'0 0.0
2017-Sep-15 12:58N 48°23' W 004°29'0 0.0
2017-Sep-15 12:28N 48°23' W 004°29'0 0.0
2017-Sep-15 11:58N 48°23' W 004°29'0 0.0
2017-Sep-15 11:28N 48°23' W 004°29'0 0.0
2017-Sep-15 10:58N 48°23' W 004°29'0 0.0
2017-Sep-15 10:29N 48°23' W 004°29'0 0.0
2017-Sep-15 09:58N 48°23' W 004°29'0 0.0
2017-Sep-15 09:28N 48°23' W 004°29'0 0.0
2017-Sep-15 08:58N 48°23' W 004°29'0 0.0
2017-Sep-15 08:28N 48°23' W 004°29'0 0.0
2017-Sep-15 07:58N 48°23' W 004°29'0 0.0
2017-Sep-15 07:28N 48°23' W 004°29'0 0.0
2017-Sep-15 06:58N 48°23' W 004°29'0 0.0
2017-Sep-15 06:28N 48°23' W 004°29'0 0.0
2017-Sep-15 05:58N 48°23' W 004°29'0 0.0
2017-Sep-15 05:28N 48°23' W 004°29'0 0.0
2017-Sep-15 04:58N 48°23' W 004°29'0 0.0
2017-Sep-15 04:28N 48°23' W 004°29'0 0.0
2017-Sep-15 03:58N 48°23' W 004°29'0 0.0
2017-Sep-15 03:28N 48°23' W 004°29'0 0.0
2017-Sep-15 02:58N 48°23' W 004°29'0 0.0
2017-Sep-15 02:28N 48°23' W 004°29'0 0.0
2017-Sep-15 01:58N 48°23' W 004°29'0 0.0
2017-Sep-15 01:28N 48°23' W 004°29'0 0.0
2017-Sep-15 00:58N 48°23' W 004°29'0 0.0
2017-Sep-15 00:28N 48°23' W 004°29'0 0.0
2017-Sep-14 23:58N 48°23' W 004°29'0 0.0
2017-Sep-14 23:28N 48°23' W 004°29'0 0.0
2017-Sep-14 22:58N 48°23' W 004°29'0 0.0
2017-Sep-14 22:28N 48°23' W 004°29'0 0.0
2017-Sep-14 21:58N 48°23' W 004°29'0 0.0
2017-Sep-14 21:28N 48°23' W 004°29'0 0.0
2017-Sep-14 20:58N 48°23' W 004°29'0 0.0
2017-Sep-14 20:28N 48°23' W 004°29'0 0.0
2017-Sep-14 19:58N 48°23' W 004°29'0 0.0
2017-Sep-14 19:28N 48°23' W 004°29'0 0.0
2017-Sep-14 18:58N 48°23' W 004°29'0 0.0
2017-Sep-14 18:28N 48°23' W 004°29'0 0.0
2017-Sep-14 17:58N 48°23' W 004°29'0 0.0
2017-Sep-14 17:25N 48°23' W 004°29'0 0.0
2017-Sep-14 16:58N 48°23' W 004°29'0 0.0
2017-Sep-14 16:28N 48°23' W 004°29'0 0.0
2017-Sep-14 15:58N 48°23' W 004°29'0 0.0
2017-Sep-14 15:28N 48°23' W 004°29'0 0.0
2017-Sep-14 14:58N 48°23' W 004°29'0 0.0
2017-Sep-14 14:28N 48°23' W 004°29'0 0.0
2017-Sep-14 13:58N 48°23' W 004°29'0 0.0
2017-Sep-14 13:28N 48°23' W 004°29'0 0.0
2017-Sep-14 12:58N 48°23' W 004°29'0 0.0
2017-Sep-14 12:28N 48°23' W 004°29'0 0.0
2017-Sep-14 11:58N 48°23' W 004°29'0 0.0
2017-Sep-14 11:28N 48°23' W 004°29'0 0.0
2017-Sep-14 10:58N 48°23' W 004°29'0 0.0
2017-Sep-14 10:28N 48°23' W 004°29'0 0.0
2017-Sep-14 09:58N 48°23' W 004°29'0 0.0
2017-Sep-14 09:28N 48°23' W 004°29'0 0.0
2017-Sep-14 08:58N 48°23' W 004°29'0 0.0
2017-Sep-14 08:28N 48°23' W 004°29'0 0.0
2017-Sep-14 07:58N 48°23' W 004°29'0 0.0
2017-Sep-14 07:28N 48°23' W 004°29'0 0.0
2017-Sep-14 06:58N 48°23' W 004°29'0 0.0
2017-Sep-14 06:28N 48°23' W 004°29'0 0.0
2017-Sep-14 05:58N 48°23' W 004°29'0 0.0
2017-Sep-14 05:28N 48°23' W 004°29'0 0.0
2017-Sep-14 04:58N 48°23' W 004°29'0 0.0
2017-Sep-14 04:28N 48°23' W 004°29'0 0.0
2017-Sep-14 03:58N 48°23' W 004°29'0 0.0
2017-Sep-14 03:28N 48°23' W 004°29'0 0.0
2017-Sep-14 02:58N 48°23' W 004°29'0 0.0
2017-Sep-14 02:28N 48°23' W 004°29'0 0.0
2017-Sep-14 01:58N 48°23' W 004°29'0 0.0
2017-Sep-14 01:28N 48°23' W 004°29'0 0.0
2017-Sep-14 00:58N 48°23' W 004°29'0 0.0
2017-Sep-14 00:28N 48°23' W 004°29'0 0.0
2017-Sep-13 23:58N 48°23' W 004°29'0 0.0
2017-Sep-13 23:28N 48°23' W 004°29'0 0.0
2017-Sep-13 22:58N 48°23' W 004°29'0 0.0
2017-Sep-13 22:28N 48°23' W 004°29'0 0.0
2017-Sep-13 21:58N 48°23' W 004°29'0 0.0
2017-Sep-13 21:28N 48°23' W 004°29'0 0.0
2017-Sep-13 20:58N 48°23' W 004°29'0 0.0
2017-Sep-13 20:28N 48°23' W 004°29'0 0.0
2017-Sep-13 19:58N 48°23' W 004°29'0 0.0
2017-Sep-13 19:28N 48°23' W 004°29'0 0.0
2017-Sep-13 18:58N 48°23' W 004°29'0 0.0
2017-Sep-13 18:28N 48°23' W 004°29'0 0.0
2017-Sep-13 17:58N 48°23' W 004°29'0 0.0
2017-Sep-13 17:28N 48°23' W 004°29'0 0.0
2017-Sep-13 16:58N 48°23' W 004°29'0 0.0
2017-Sep-13 16:28N 48°23' W 004°29'0 0.0
2017-Sep-13 15:58N 48°23' W 004°29'0 0.0
2017-Sep-13 15:28N 48°23' W 004°29'0 0.0
2017-Sep-13 14:58N 48°23' W 004°29'0 0.0
2017-Sep-13 14:28N 48°23' W 004°29'0 0.0
2017-Sep-13 13:58N 48°23' W 004°29'0 0.0
2017-Sep-13 13:28N 48°23' W 004°29'0 0.0
2017-Sep-13 12:58N 48°23' W 004°29'0 0.0
2017-Sep-13 12:28N 48°23' W 004°29'0 0.0
2017-Sep-13 11:58N 48°23' W 004°29'0 0.0
2017-Sep-13 11:28N 48°23' W 004°29'0 0.0
2017-Sep-13 10:58N 48°23' W 004°29'0 0.0
2017-Sep-13 10:28N 48°23' W 004°29'0 0.0
2017-Sep-13 09:58N 48°23' W 004°29'0 0.0
2017-Sep-13 09:28N 48°23' W 004°29'0 0.0
2017-Sep-13 08:58N 48°23' W 004°29'0 0.0
2017-Sep-13 08:28N 48°23' W 004°29'0 0.0
2017-Sep-13 07:58N 48°23' W 004°29'0 0.0
2017-Sep-13 07:28N 48°23' W 004°29'0 0.0
2017-Sep-13 06:58N 48°23' W 004°29'0 0.0
2017-Sep-13 06:28N 48°23' W 004°29'0 0.0
2017-Sep-13 05:58N 48°23' W 004°29'0 0.0
2017-Sep-13 05:28N 48°23' W 004°29'0 0.0
2017-Sep-13 04:58N 48°23' W 004°29'0 0.0
2017-Sep-13 04:28N 48°23' W 004°29'0 0.0
2017-Sep-13 03:58N 48°23' W 004°29'0 0.0
2017-Sep-13 03:28N 48°23' W 004°29'0 0.0
2017-Sep-13 02:58N 48°23' W 004°29'0 0.0
2017-Sep-13 02:28N 48°23' W 004°29'0 0.0
2017-Sep-13 01:58N 48°23' W 004°29'0 0.0
2017-Sep-13 01:28N 48°23' W 004°29'0 0.0
2017-Sep-13 00:58N 48°23' W 004°29'0 0.0
2017-Sep-13 00:28N 48°23' W 004°29'0 0.0
2017-Sep-12 23:58N 48°23' W 004°29'0 0.0
2017-Sep-12 23:28N 48°23' W 004°29'0 0.0
2017-Sep-12 22:58N 48°23' W 004°29'0 0.0
2017-Sep-12 22:28N 48°23' W 004°29'0 0.0
2017-Sep-12 21:58N 48°23' W 004°29'0 0.0
2017-Sep-12 21:28N 48°23' W 004°29'0 0.0
2017-Sep-12 20:58N 48°23' W 004°29'0 0.0
2017-Sep-12 20:28N 48°23' W 004°29'0 0.0
2017-Sep-12 19:58N 48°23' W 004°29'0 0.0
2017-Sep-12 19:28N 48°23' W 004°29'0 0.0
2017-Sep-12 18:58N 48°23' W 004°29'0 0.0
2017-Sep-12 18:28N 48°23' W 004°29'0 0.0
2017-Sep-12 17:58N 48°23' W 004°29'0 0.0
2017-Sep-12 17:28N 48°23' W 004°29'0 0.0
2017-Sep-12 16:58N 48°23' W 004°29'0 0.0
2017-Sep-12 16:28N 48°23' W 004°29'0 0.0
2017-Sep-12 15:58N 48°23' W 004°29'0 0.0
2017-Sep-12 15:28N 48°23' W 004°29'0 0.0
2017-Sep-12 14:58N 48°23' W 004°29'0 0.0
2017-Sep-12 14:28N 48°23' W 004°29'0 0.0
2017-Sep-12 13:58N 48°23' W 004°29'0 0.0
2017-Sep-12 13:28N 48°23' W 004°29'0 0.0
2017-Sep-12 12:58N 48°23' W 004°29'0 0.0
2017-Sep-12 12:28N 48°23' W 004°29'0 0.0
2017-Sep-12 11:58N 48°23' W 004°29'0 0.0
2017-Sep-12 11:28N 48°23' W 004°29'0 0.0
2017-Sep-12 10:58N 48°23' W 004°29'0 0.0
2017-Sep-12 10:28N 48°23' W 004°29'0 0.0
2017-Sep-12 09:58N 48°23' W 004°29'0 0.0
2017-Sep-12 09:28N 48°23' W 004°29'0 0.0
2017-Sep-12 08:58N 48°23' W 004°29'0 0.0
2017-Sep-12 08:28N 48°23' W 004°29'0 0.0
2017-Sep-12 07:58N 48°23' W 004°29'0 0.0
2017-Sep-12 07:28N 48°23' W 004°29'0 0.0
2017-Sep-12 06:58N 48°23' W 004°29'0 0.0
2017-Sep-12 06:28N 48°23' W 004°29'0 0.0
2017-Sep-12 05:58N 48°23' W 004°29'0 0.0
2017-Sep-12 05:28N 48°23' W 004°29'0 0.0
2017-Sep-12 04:58N 48°23' W 004°29'0 0.0
2017-Sep-12 04:28N 48°23' W 004°29'0 0.0
2017-Sep-12 03:58N 48°23' W 004°29'0 0.0
2017-Sep-12 03:28N 48°23' W 004°29'0 0.0
2017-Sep-12 02:58N 48°23' W 004°29'0 0.0
2017-Sep-12 02:28N 48°23' W 004°29'0 0.0
2017-Sep-12 01:58N 48°23' W 004°29'0 0.0
2017-Sep-12 01:28N 48°23' W 004°29'0 0.0
2017-Sep-12 00:58N 48°23' W 004°29'0 0.0
2017-Sep-12 00:28N 48°23' W 004°29'0 0.0
2017-Sep-11 23:58N 48°23' W 004°29'0 0.0
2017-Sep-11 23:28N 48°23' W 004°29'0 0.0
2017-Sep-11 22:58N 48°23' W 004°29'0 0.0
2017-Sep-11 22:28N 48°23' W 004°29'0 0.0
2017-Sep-11 21:58N 48°23' W 004°29'0 0.0
2017-Sep-11 21:28N 48°23' W 004°29'0 0.0
2017-Sep-11 20:58N 48°23' W 004°29'0 0.0
2017-Sep-11 20:28N 48°23' W 004°29'0 0.0
2017-Sep-11 19:58N 48°23' W 004°29'0 0.0
2017-Sep-11 19:28N 48°23' W 004°29'0 0.0
2017-Sep-11 18:58N 48°23' W 004°29'0 0.0
2017-Sep-11 18:28N 48°23' W 004°29'0 0.0
2017-Sep-11 17:58N 48°23' W 004°29'0 0.0
2017-Sep-11 17:28N 48°23' W 004°29'0 0.0
2017-Sep-11 16:58N 48°23' W 004°29'0 0.0
2017-Sep-11 16:28N 48°23' W 004°29'0 0.0
2017-Sep-11 15:58N 48°23' W 004°29'0 0.0
2017-Sep-11 15:28N 48°23' W 004°29'0 0.0
2017-Sep-11 14:58N 48°23' W 004°29'0 0.0
2017-Sep-11 14:28N 48°23' W 004°29'0 0.0
2017-Sep-11 13:58N 48°23' W 004°29'0 0.0
2017-Sep-11 13:28N 48°23' W 004°29'0 0.0
2017-Sep-11 12:58N 48°23' W 004°29'0 0.0
2017-Sep-11 12:28N 48°23' W 004°29'0 0.0
2017-Sep-11 11:58N 48°23' W 004°29'0 0.0
2017-Sep-11 11:28N 48°23' W 004°29'0 0.0
2017-Sep-11 10:58N 48°23' W 004°29'0 0.0
2017-Sep-11 10:28N 48°23' W 004°29'0 0.0
2017-Sep-11 09:58N 48°23' W 004°29'0 0.0
2017-Sep-11 09:28N 48°23' W 004°29'0 0.0
2017-Sep-11 08:58N 48°23' W 004°29'0 0.0
2017-Sep-11 08:28N 48°23' W 004°29'0 0.0
2017-Sep-11 07:58N 48°23' W 004°29'0 0.0
2017-Sep-11 07:28N 48°23' W 004°29'0 0.0
2017-Sep-11 06:58N 48°23' W 004°29'0 0.0
2017-Sep-11 06:28N 48°23' W 004°29'0 0.0
2017-Sep-11 05:58N 48°23' W 004°29'0 0.0
2017-Sep-11 05:28N 48°23' W 004°29'0 0.0
2017-Sep-11 04:58N 48°23' W 004°29'0 0.0
2017-Sep-11 04:28N 48°23' W 004°29'0 0.0
2017-Sep-11 03:58N 48°23' W 004°29'0 0.0
2017-Sep-11 03:28N 48°23' W 004°29'0 0.0
2017-Sep-11 02:58N 48°23' W 004°29'0 0.0
2017-Sep-11 02:28N 48°23' W 004°29'0 0.0
2017-Sep-11 01:58N 48°23' W 004°29'0 0.0
2017-Sep-11 01:28N 48°23' W 004°29'0 0.0
2017-Sep-11 00:58N 48°23' W 004°29'0 0.0
2017-Sep-11 00:28N 48°23' W 004°29'0 0.0
2017-Sep-10 23:58N 48°23' W 004°29'0 0.0
2017-Sep-10 23:28N 48°23' W 004°29'0 0.0
2017-Sep-10 22:58N 48°23' W 004°29'0 0.0
2017-Sep-10 22:28N 48°23' W 004°29'0 0.0
2017-Sep-10 21:58N 48°23' W 004°29'0 0.0
2017-Sep-10 21:28N 48°23' W 004°29'0 0.0
2017-Sep-10 20:58N 48°23' W 004°29'0 0.0
2017-Sep-10 20:28N 48°23' W 004°29'0 0.0
2017-Sep-10 19:58N 48°23' W 004°29'0 0.0
2017-Sep-10 19:28N 48°23' W 004°29'0 0.0
2017-Sep-10 18:58N 48°23' W 004°29'0 0.0
2017-Sep-10 18:28N 48°23' W 004°29'0 0.0
2017-Sep-10 17:58N 48°23' W 004°29'0 0.0
2017-Sep-10 17:28N 48°23' W 004°29'0 0.0
2017-Sep-10 17:01N 48°23' W 004°29'0 0.0
2017-Sep-10 16:28N 48°23' W 004°29'0 0.0
2017-Sep-10 15:58N 48°23' W 004°29'0 0.0
2017-Sep-10 15:31N 48°23' W 004°29'0 0.0
2017-Sep-10 15:01N 48°23' W 004°29'0 0.0
2017-Sep-10 13:58N 48°23' W 004°29'0 0.0
2017-Sep-10 13:31N 48°23' W 004°29'0 0.0
2017-Sep-10 13:01N 48°23' W 004°29'0 0.0
2017-Sep-10 12:31N 48°23' W 004°29'0 0.0
2017-Sep-10 12:01N 48°23' W 004°29'0 0.0
2017-Sep-10 11:31N 48°23' W 004°29'0 0.0
2017-Sep-10 11:01N 48°23' W 004°29'0 0.0
2017-Sep-10 10:31N 48°23' W 004°29'0 0.0
2017-Sep-10 10:01N 48°23' W 004°29'0 0.0
2017-Sep-10 09:31N 48°23' W 004°29'0 0.0
2017-Sep-10 09:01N 48°23' W 004°29'0 0.0
2017-Sep-10 08:31N 48°23' W 004°29'0 0.0
2017-Sep-10 08:01N 48°23' W 004°29'0 0.0
2017-Sep-10 07:31N 48°23' W 004°29'0 0.0
2017-Sep-10 07:01N 48°23' W 004°29'0 0.0
2017-Sep-10 06:31N 48°23' W 004°29'0 0.0
2017-Sep-10 06:00N 48°23' W 004°29'0 0.0
2017-Sep-10 05:31N 48°23' W 004°29'0 0.0
2017-Sep-10 05:00N 48°23' W 004°29'0 0.0
2017-Sep-10 04:30N 48°23' W 004°29'0 0.0
2017-Sep-10 04:01N 48°23' W 004°29'0 0.0
2017-Sep-10 03:30N 48°23' W 004°29'0 0.0
2017-Sep-10 03:00N 48°23' W 004°29'0 0.0
2017-Sep-10 02:30N 48°23' W 004°29'0 0.0
2017-Sep-10 02:00N 48°23' W 004°29'0 0.0
2017-Sep-10 01:30N 48°23' W 004°29'0 0.0
2017-Sep-10 01:00N 48°23' W 004°29'0 0.0
2017-Sep-10 00:30N 48°23' W 004°29'0 0.0
2017-Sep-10 00:01N 48°23' W 004°29'0 0.0
2017-Sep-09 23:30N 48°23' W 004°29'0 0.0
2017-Sep-09 23:00N 48°23' W 004°29'0 0.0
2017-Sep-09 22:30N 48°23' W 004°29'0 0.0
2017-Sep-09 22:00N 48°23' W 004°29'0 0.0
2017-Sep-09 21:30N 48°23' W 004°29'0 0.0
2017-Sep-09 21:01N 48°23' W 004°29'0 0.0
2017-Sep-09 20:30N 48°23' W 004°29'0 0.0
2017-Sep-09 20:00N 48°23' W 004°29'0 0.0
2017-Sep-09 19:30N 48°23' W 004°29'0 0.0
2017-Sep-09 19:00N 48°23' W 004°29'0 0.0
2017-Sep-09 18:30N 48°23' W 004°29'0 0.0
2017-Sep-09 18:00N 48°23' W 004°29'0 0.0
2017-Sep-09 17:30N 48°23' W 004°29'0 0.0
2017-Sep-09 17:00N 48°23' W 004°29'0 0.0
2017-Sep-09 16:30N 48°23' W 004°29'0 0.0
2017-Sep-09 16:00N 48°23' W 004°29'0 0.0
2017-Sep-09 15:31N 48°23' W 004°29'0 0.0
2017-Sep-09 15:00N 48°23' W 004°29'0 0.0
2017-Sep-09 14:30N 48°23' W 004°29'0 0.0
2017-Sep-09 14:00N 48°23' W 004°29'0 0.0
2017-Sep-09 13:30N 48°23' W 004°29'0 0.0
2017-Sep-09 13:01N 48°23' W 004°29'0 0.0
2017-Sep-09 12:31N 48°23' W 004°29'0 0.0
2017-Sep-09 12:00N 48°23' W 004°29'0 0.0
2017-Sep-09 11:30N 48°23' W 004°29'0 0.0
2017-Sep-09 11:00N 48°23' W 004°29'0 0.0
2017-Sep-09 10:30N 48°23' W 004°29'0 0.0
2017-Sep-09 10:00N 48°23' W 004°29'0 0.0
2017-Sep-09 09:30N 48°23' W 004°29'0 0.0
2017-Sep-09 09:00N 48°23' W 004°29'0 0.0
2017-Sep-09 08:30N 48°23' W 004°29'0 0.0
2017-Sep-09 08:01N 48°23' W 004°29'0 0.0
2017-Sep-09 07:30N 48°23' W 004°29'0 0.0
2017-Sep-09 07:00N 48°23' W 004°29'0 0.0
2017-Sep-09 06:30N 48°23' W 004°29'0 0.0
2017-Sep-09 06:00N 48°23' W 004°29'0 0.0
2017-Sep-09 05:30N 48°23' W 004°29'0 0.0
2017-Sep-09 05:00N 48°23' W 004°29'0 0.0
2017-Sep-09 04:30N 48°23' W 004°29'0 0.0
2017-Sep-09 04:00N 48°23' W 004°29'0 0.0
2017-Sep-09 03:30N 48°23' W 004°29'0 0.0
2017-Sep-09 03:00N 48°23' W 004°29'0 0.0
2017-Sep-09 02:30N 48°23' W 004°29'0 0.0
2017-Sep-09 02:00N 48°23' W 004°29'0 0.0
2017-Sep-09 01:30N 48°23' W 004°29'0 0.0
2017-Sep-09 01:00N 48°23' W 004°29'0 0.0
2017-Sep-09 00:30N 48°23' W 004°29'0 0.0
2017-Sep-09 00:00N 48°23' W 004°29'0 0.0
2017-Sep-08 23:30N 48°23' W 004°29'0 0.0
2017-Sep-08 23:00N 48°23' W 004°29'0 0.0
2017-Sep-08 22:30N 48°23' W 004°29'0 0.0
2017-Sep-08 22:00N 48°23' W 004°29'0 0.0
2017-Sep-08 21:30N 48°23' W 004°29'0 0.0
2017-Sep-08 21:00N 48°23' W 004°29'0 0.0
2017-Sep-08 20:30N 48°23' W 004°29'0 0.0
2017-Sep-08 20:00N 48°23' W 004°29'0 0.0
2017-Sep-08 19:30N 48°23' W 004°29'0 0.0
2017-Sep-08 19:00N 48°23' W 004°29'0 0.0
2017-Sep-08 18:30N 48°23' W 004°29'0 0.0
2017-Sep-08 18:00N 48°23' W 004°29'0 0.0
2017-Sep-08 17:30N 48°23' W 004°29'0 0.0
2017-Sep-08 17:00N 48°23' W 004°29'0 0.0
2017-Sep-08 16:30N 48°23' W 004°29'0 0.0
2017-Sep-08 16:00N 48°23' W 004°29'0 0.0
2017-Sep-08 15:30N 48°23' W 004°29'0 0.0
2017-Sep-08 15:00N 48°23' W 004°29'0 0.0
2017-Sep-08 14:30N 48°23' W 004°29'0 0.0
2017-Sep-08 14:00N 48°23' W 004°29'0 0.0
2017-Sep-08 13:30N 48°23' W 004°29'0 0.0
2017-Sep-08 13:00N 48°23' W 004°29'0 0.0
2017-Sep-08 12:30N 48°23' W 004°29'0 0.0
2017-Sep-08 12:00N 48°23' W 004°29'0 0.0
2017-Sep-08 11:30N 48°23' W 004°29'0 0.0
2017-Sep-08 11:00N 48°23' W 004°29'0 0.0
2017-Sep-08 10:30N 48°23' W 004°29'0 0.0
2017-Sep-08 10:00N 48°23' W 004°29'0 0.0
2017-Sep-08 09:30N 48°23' W 004°29'0 0.0
2017-Sep-08 09:00N 48°23' W 004°29'0 0.0
2017-Sep-08 08:30N 48°23' W 004°29'0 0.0
2017-Sep-08 08:00N 48°23' W 004°29'0 0.0
2017-Sep-08 07:30N 48°23' W 004°29'0 0.0
2017-Sep-08 07:00N 48°23' W 004°29'0 0.0
2017-Sep-08 06:30N 48°23' W 004°29'0 0.0
2017-Sep-08 06:00N 48°23' W 004°29'0 0.0
2017-Sep-08 05:30N 48°23' W 004°29'0 0.0
2017-Sep-08 05:00N 48°23' W 004°29'0 0.0
2017-Sep-08 04:30N 48°23' W 004°29'0 0.0
2017-Sep-08 04:00N 48°23' W 004°29'0 0.0
2017-Sep-08 03:30N 48°23' W 004°29'0 0.0
2017-Sep-08 03:00N 48°23' W 004°29'0 0.0
2017-Sep-08 02:30N 48°23' W 004°29'0 0.0
2017-Sep-08 02:00N 48°23' W 004°29'0 0.0
2017-Sep-08 01:30N 48°23' W 004°29'0 0.0
2017-Sep-08 01:00N 48°23' W 004°29'0 0.0
2017-Sep-08 00:30N 48°23' W 004°29'0 0.0
2017-Sep-08 00:00N 48°23' W 004°29'0 0.0
2017-Sep-07 23:30N 48°23' W 004°29'0 0.0
2017-Sep-07 23:00N 48°23' W 004°29'0 0.0
2017-Sep-07 22:30N 48°23' W 004°29'0 0.0
2017-Sep-07 22:00N 48°23' W 004°29'0 0.0
2017-Sep-07 21:30N 48°23' W 004°29'0 0.0
2017-Sep-07 21:00N 48°23' W 004°29'0 0.0
2017-Sep-07 20:30N 48°23' W 004°29'  

Dump ship's entire track history